sensor_id;sensor_type;location;lat;lon;timestamp;P1;durP1;ratioP1;P2;durP2;ratioP2
78290;SDS011;67543;45.494;9.100;2023-04-19T08:04:01;11.88;;;7.35;;
78290;SDS011;67543;45.494;9.100;2023-04-19T08:06:26;13.70;;;7.07;;
78290;SDS011;67543;45.494;9.100;2023-04-19T08:08:53;12.73;;;6.57;;
78290;SDS011;67543;45.494;9.100;2023-04-19T08:11:18;12.53;;;7.13;;
78290;SDS011;67543;45.494;9.100;2023-04-19T08:13:44;11.60;;;6.88;;
78290;SDS011;67543;45.494;9.100;2023-04-19T08:16:12;16.02;;;6.82;;
78290;SDS011;67543;45.494;9.100;2023-04-19T08:18:38;12.18;;;6.95;;
78290;SDS011;67543;45.494;9.100;2023-04-19T08:21:03;8.77;;;6.32;;
78290;SDS011;67543;45.494;9.100;2023-04-19T08:23:29;9.98;;;7.15;;
78290;SDS011;67543;45.494;9.100;2023-04-19T08:25:54;10.13;;;6.57;;
78290;SDS011;67543;45.494;9.100;2023-04-19T08:28:19;12.20;;;7.32;;
78290;SDS011;67543;45.494;9.100;2023-04-19T08:30:45;14.50;;;6.00;;
78290;SDS011;67543;45.494;9.100;2023-04-19T08:33:13;9.90;;;6.22;;
78290;SDS011;67543;45.494;9.100;2023-04-19T08:35:41;11.50;;;6.47;;
78290;SDS011;67543;45.494;9.100;2023-04-19T08:38:10;9.43;;;7.07;;
78290;SDS011;67543;45.494;9.100;2023-04-19T08:40:37;9.73;;;6.22;;
78290;SDS011;67543;45.494;9.100;2023-04-19T08:43:16;8.57;;;4.97;;
78290;SDS011;67543;45.494;9.100;2023-04-19T08:45:45;9.93;;;5.60;;
78290;SDS011;67543;45.494;9.100;2023-04-19T08:48:11;7.18;;;5.07;;
78290;SDS011;67543;45.494;9.100;2023-04-19T08:50:40;10.38;;;5.38;;
78290;SDS011;67543;45.494;9.100;2023-04-19T08:53:07;8.88;;;5.38;;
78290;SDS011;67543;45.494;9.100;2023-04-19T08:55:39;9.60;;;5.60;;
78290;SDS011;67543;45.494;9.100;2023-04-19T08:58:05;9.48;;;6.28;;
78290;SDS011;67543;45.494;9.100;2023-04-19T09:00:36;6.13;;;4.65;;
78290;SDS011;67543;45.494;9.100;2023-04-19T09:03:03;11.95;;;5.40;;
78290;SDS011;67543;45.494;9.100;2023-04-19T09:05:31;7.90;;;5.15;;
78290;SDS011;67543;45.494;9.100;2023-04-19T09:08:19;9.18;;;5.35;;
78290;SDS011;67543;45.494;9.100;2023-04-19T09:10:52;8.25;;;5.57;;
78290;SDS011;67543;45.494;9.100;2023-04-19T09:13:22;7.22;;;4.55;;
78290;SDS011;67543;45.494;9.100;2023-04-19T09:15:47;8.00;;;5.78;;
78290;SDS011;67543;45.494;9.100;2023-04-19T09:18:13;9.65;;;4.85;;
78290;SDS011;67543;45.494;9.100;2023-04-19T09:20:39;11.13;;;5.15;;
78290;SDS011;67543;45.494;9.100;2023-04-19T09:23:06;12.23;;;6.45;;
78290;SDS011;67543;45.494;9.100;2023-04-19T09:25:33;14.68;;;6.43;;
78290;SDS011;67543;45.494;9.100;2023-04-19T09:28:12;7.95;;;4.60;;
78290;SDS011;67543;45.494;9.100;2023-04-19T09:30:38;8.88;;;6.00;;
78290;SDS011;67543;45.494;9.100;2023-04-19T09:33:04;7.78;;;5.90;;
78290;SDS011;67543;45.494;9.100;2023-04-19T09:35:44;7.70;;;4.70;;
78290;SDS011;67543;45.494;9.100;2023-04-19T09:38:13;6.45;;;5.00;;
78290;SDS011;67543;45.494;9.100;2023-04-19T09:40:39;8.73;;;5.22;;
78290;SDS011;67543;45.494;9.100;2023-04-19T09:43:05;6.72;;;3.92;;
78290;SDS011;67543;45.494;9.100;2023-04-19T09:45:44;9.50;;;5.07;;
78290;SDS011;67543;45.494;9.100;2023-04-19T09:48:11;5.90;;;4.22;;
78290;SDS011;67543;45.494;9.100;2023-04-19T09:50:53;7.35;;;4.80;;
78290;SDS011;67543;45.494;9.100;2023-04-19T09:53:20;7.50;;;5.40;;
78290;SDS011;67543;45.494;9.100;2023-04-19T09:55:46;9.02;;;5.32;;
78290;SDS011;67543;45.494;9.100;2023-04-19T09:58:12;7.47;;;4.55;;
78290;SDS011;67543;45.494;9.100;2023-04-19T10:00:38;9.70;;;4.97;;
78290;SDS011;67543;45.494;9.100;2023-04-19T10:03:11;9.63;;;5.95;;
78290;SDS011;67543;45.494;9.100;2023-04-19T10:05:40;7.18;;;4.32;;
78290;SDS011;67543;45.494;9.100;2023-04-19T10:08:06;7.97;;;4.45;;
78290;SDS011;67543;45.494;9.100;2023-04-19T10:10:36;7.53;;;4.82;;
78290;SDS011;67543;45.494;9.100;2023-04-19T10:13:17;5.88;;;4.10;;
78290;SDS011;67543;45.494;9.100;2023-04-19T10:15:47;14.55;;;5.75;;
78290;SDS011;67543;45.494;9.100;2023-04-19T10:18:12;9.82;;;4.78;;
78290;SDS011;67543;45.494;9.100;2023-04-19T10:20:41;9.00;;;5.50;;
78290;SDS011;67543;45.494;9.100;2023-04-19T10:23:17;8.57;;;5.90;;
78290;SDS011;67543;45.494;9.100;2023-04-19T10:25:45;7.90;;;5.45;;
78290;SDS011;67543;45.494;9.100;2023-04-19T10:28:11;8.75;;;5.18;;
78290;SDS011;67543;45.494;9.100;2023-04-19T10:30:37;8.48;;;5.15;;
78290;SDS011;67543;45.494;9.100;2023-04-19T10:33:23;9.63;;;5.43;;
78290;SDS011;67543;45.494;9.100;2023-04-19T10:35:49;6.65;;;4.68;;
78290;SDS011;67543;45.494;9.100;2023-04-19T10:38:15;7.43;;;4.78;;
78290;SDS011;67543;45.494;9.100;2023-04-19T10:40:57;11.10;;;5.60;;
78290;SDS011;67543;45.494;9.100;2023-04-19T10:43:25;8.13;;;6.10;;
78290;SDS011;67543;45.494;9.100;2023-04-19T10:45:58;10.48;;;6.25;;
78290;SDS011;67543;45.494;9.100;2023-04-19T10:48:35;8.48;;;4.63;;
78290;SDS011;67543;45.494;9.100;2023-04-19T10:51:10;6.93;;;3.55;;
78290;SDS011;67543;45.494;9.100;2023-04-19T10:56:20;6.20;;;4.18;;
78290;SDS011;67543;45.494;9.100;2023-04-19T11:01:39;6.68;;;4.45;;
78290;SDS011;67543;45.494;9.100;2023-04-19T11:04:07;7.53;;;4.45;;
78290;SDS011;67543;45.494;9.100;2023-04-19T11:06:33;8.45;;;4.80;;
78290;SDS011;67543;45.494;9.100;2023-04-19T11:08:59;9.15;;;4.78;;
78290;SDS011;67543;45.494;9.100;2023-04-19T11:11:25;10.23;;;4.88;;
78290;SDS011;67543;45.494;9.100;2023-04-19T11:13:50;7.35;;;4.65;;
78290;SDS011;67543;45.494;9.100;2023-04-19T11:16:19;6.45;;;4.43;;
78290;SDS011;67543;45.494;9.100;2023-04-19T11:18:44;11.02;;;5.22;;
78290;SDS011;67543;45.494;9.100;2023-04-19T11:21:13;11.38;;;5.75;;
78290;SDS011;67543;45.494;9.100;2023-04-19T11:23:39;7.90;;;4.93;;
78290;SDS011;67543;45.494;9.100;2023-04-19T11:26:05;7.97;;;4.82;;
78290;SDS011;67543;45.494;9.100;2023-04-19T11:28:34;11.38;;;4.95;;
78290;SDS011;67543;45.494;9.100;2023-04-19T11:30:59;9.05;;;5.72;;
78290;SDS011;67543;45.494;9.100;2023-04-19T11:33:25;10.27;;;5.75;;
78290;SDS011;67543;45.494;9.100;2023-04-19T11:35:51;7.97;;;5.70;;
78290;SDS011;67543;45.494;9.100;2023-04-19T11:38:16;6.78;;;4.78;;
78290;SDS011;67543;45.494;9.100;2023-04-19T11:40:42;8.65;;;6.13;;
78290;SDS011;67543;45.494;9.100;2023-04-19T11:43:07;8.68;;;5.07;;
78290;SDS011;67543;45.494;9.100;2023-04-19T11:45:33;8.82;;;5.85;;
78290;SDS011;67543;45.494;9.100;2023-04-19T11:48:00;8.88;;;5.43;;
78290;SDS011;67543;45.494;9.100;2023-04-19T11:52:54;7.70;;;4.80;;
78290;SDS011;67543;45.494;9.100;2023-04-19T11:55:20;5.28;;;4.03;;
78290;SDS011;67543;45.494;9.100;2023-04-19T11:57:46;9.80;;;4.57;;
78290;SDS011;67543;45.494;9.100;2023-04-19T12:00:12;6.22;;;4.07;;
78290;SDS011;67543;45.494;9.100;2023-04-19T12:02:38;7.22;;;4.65;;
78290;SDS011;67543;45.494;9.100;2023-04-19T12:05:14;7.22;;;4.40;;
78290;SDS011;67543;45.494;9.100;2023-04-19T12:10:28;8.70;;;5.10;;
78290;SDS011;67543;45.494;9.100;2023-04-19T12:12:57;10.07;;;5.15;;
78290;SDS011;67543;45.494;9.100;2023-04-19T12:15:41;8.98;;;5.32;;
78290;SDS011;67543;45.494;9.100;2023-04-19T12:18:07;6.72;;;4.63;;
78290;SDS011;67543;45.494;9.100;2023-04-19T12:20:34;7.82;;;4.07;;
78290;SDS011;67543;45.494;9.100;2023-04-19T12:23:00;6.18;;;4.25;;
78290;SDS011;67543;45.494;9.100;2023-04-19T12:25:27;7.00;;;5.05;;
78290;SDS011;67543;45.494;9.100;2023-04-19T12:27:56;5.78;;;3.75;;
78290;SDS011;67543;45.494;9.100;2023-04-19T12:30:21;8.23;;;4.43;;
78290;SDS011;67543;45.494;9.100;2023-04-19T12:32:50;7.05;;;5.40;;
78290;SDS011;67543;45.494;9.100;2023-04-19T12:35:16;4.93;;;3.47;;
78290;SDS011;67543;45.494;9.100;2023-04-19T12:37:42;7.03;;;3.40;;
78290;SDS011;67543;45.494;9.100;2023-04-19T12:40:07;5.47;;;2.92;;
78290;SDS011;67543;45.494;9.100;2023-04-19T12:42:33;7.53;;;3.42;;
78290;SDS011;67543;45.494;9.100;2023-04-19T12:44:58;5.18;;;3.60;;
78290;SDS011;67543;45.494;9.100;2023-04-19T12:47:24;6.20;;;3.40;;
78290;SDS011;67543;45.494;9.100;2023-04-19T12:49:49;5.68;;;2.95;;
78290;SDS011;67543;45.494;9.100;2023-04-19T12:52:15;5.95;;;3.20;;
78290;SDS011;67543;45.494;9.100;2023-04-19T12:54:40;11.38;;;3.90;;
78290;SDS011;67543;45.494;9.100;2023-04-19T12:57:05;6.93;;;3.75;;
78290;SDS011;67543;45.494;9.100;2023-04-19T12:59:31;5.13;;;3.17;;
78290;SDS011;67543;45.494;9.100;2023-04-19T13:01:56;5.70;;;3.42;;
78290;SDS011;67543;45.494;9.100;2023-04-19T13:04:22;6.07;;;3.72;;
78290;SDS011;67543;45.494;9.100;2023-04-19T13:06:47;5.97;;;2.92;;
78290;SDS011;67543;45.494;9.100;2023-04-19T13:09:12;5.28;;;2.33;;
78290;SDS011;67543;45.494;9.100;2023-04-19T13:11:38;4.97;;;2.28;;
78290;SDS011;67543;45.494;9.100;2023-04-19T13:14:03;5.25;;;3.05;;
78290;SDS011;67543;45.494;9.100;2023-04-19T13:16:28;4.95;;;3.00;;
78290;SDS011;67543;45.494;9.100;2023-04-19T13:18:53;6.97;;;2.78;;
78290;SDS011;67543;45.494;9.100;2023-04-19T13:21:19;5.90;;;3.33;;
78290;SDS011;67543;45.494;9.100;2023-04-19T13:23:45;5.85;;;2.95;;
78290;SDS011;67543;45.494;9.100;2023-04-19T13:26:10;4.20;;;2.83;;
78290;SDS011;67543;45.494;9.100;2023-04-19T13:28:36;5.47;;;2.80;;
78290;SDS011;67543;45.494;9.100;2023-04-19T13:31:02;5.35;;;3.22;;
78290;SDS011;67543;45.494;9.100;2023-04-19T13:33:28;6.10;;;3.42;;
78290;SDS011;67543;45.494;9.100;2023-04-19T13:35:53;5.30;;;3.55;;
78290;SDS011;67543;45.494;9.100;2023-04-19T13:38:18;7.28;;;4.03;;
78290;SDS011;67543;45.494;9.100;2023-04-19T13:40:44;8.93;;;3.60;;
78290;SDS011;67543;45.494;9.100;2023-04-19T13:43:09;6.35;;;3.53;;
78290;SDS011;67543;45.494;9.100;2023-04-19T13:45:34;9.02;;;4.05;;
78290;SDS011;67543;45.494;9.100;2023-04-19T13:48:00;6.07;;;3.83;;
78290;SDS011;67543;45.494;9.100;2023-04-19T13:50:25;7.97;;;5.07;;
78290;SDS011;67543;45.494;9.100;2023-04-19T13:52:50;8.13;;;4.45;;
78290;SDS011;67543;45.494;9.100;2023-04-19T13:55:16;8.05;;;4.65;;
78290;SDS011;67543;45.494;9.100;2023-04-19T13:57:41;7.43;;;5.10;;
78290;SDS011;67543;45.494;9.100;2023-04-19T14:00:07;8.55;;;5.15;;
78290;SDS011;67543;45.494;9.100;2023-04-19T14:02:33;8.25;;;5.18;;
78290;SDS011;67543;45.494;9.100;2023-04-19T14:04:58;9.27;;;5.30;;
78290;SDS011;67543;45.494;9.100;2023-04-19T14:07:24;11.40;;;5.82;;
78290;SDS011;67543;45.494;9.100;2023-04-19T14:09:49;13.20;;;5.72;;
78290;SDS011;67543;45.494;9.100;2023-04-19T14:12:15;9.02;;;5.55;;
78290;SDS011;67543;45.494;9.100;2023-04-19T14:14:41;11.18;;;6.03;;
78290;SDS011;67543;45.494;9.100;2023-04-19T14:17:06;8.75;;;6.32;;
78290;SDS011;67543;45.494;9.100;2023-04-19T14:19:31;10.40;;;5.88;;
78290;SDS011;67543;45.494;9.100;2023-04-19T14:21:57;12.20;;;6.03;;
78290;SDS011;67543;45.494;9.100;2023-04-19T14:24:22;9.05;;;6.22;;
78290;SDS011;67543;45.494;9.100;2023-04-19T14:26:48;10.52;;;5.20;;
78290;SDS011;67543;45.494;9.100;2023-04-19T14:29:15;9.32;;;4.80;;
78290;SDS011;67543;45.494;9.100;2023-04-19T14:31:41;9.10;;;4.75;;
78290;SDS011;67543;45.494;9.100;2023-04-19T14:34:06;7.88;;;4.78;;
78290;SDS011;67543;45.494;9.100;2023-04-19T14:36:31;6.57;;;3.92;;
78290;SDS011;67543;45.494;9.100;2023-04-19T14:38:56;8.32;;;4.50;;
78290;SDS011;67543;45.494;9.100;2023-04-19T14:41:22;6.97;;;3.85;;
78290;SDS011;67543;45.494;9.100;2023-04-19T14:43:48;6.13;;;3.90;;
78290;SDS011;67543;45.494;9.100;2023-04-19T14:46:14;6.28;;;3.95;;
78290;SDS011;67543;45.494;9.100;2023-04-19T14:48:42;9.38;;;3.75;;
78290;SDS011;67543;45.494;9.100;2023-04-19T14:51:09;6.10;;;4.22;;
78290;SDS011;67543;45.494;9.100;2023-04-19T14:53:34;6.90;;;3.63;;
78290;SDS011;67543;45.494;9.100;2023-04-19T14:56:02;4.93;;;3.28;;
78290;SDS011;67543;45.494;9.100;2023-04-19T14:58:28;6.10;;;3.67;;
78290;SDS011;67543;45.494;9.100;2023-04-19T15:00:54;6.05;;;3.78;;
78290;SDS011;67543;45.494;9.100;2023-04-19T15:03:19;9.23;;;4.18;;
78290;SDS011;67543;45.494;9.100;2023-04-19T15:05:45;10.77;;;5.20;;
78290;SDS011;67543;45.494;9.100;2023-04-19T15:08:10;8.45;;;4.53;;
78290;SDS011;67543;45.494;9.100;2023-04-19T15:10:35;6.90;;;3.88;;
78290;SDS011;67543;45.494;9.100;2023-04-19T15:13:01;4.85;;;3.83;;
78290;SDS011;67543;45.494;9.100;2023-04-19T15:15:26;7.78;;;3.92;;
78290;SDS011;67543;45.494;9.100;2023-04-19T15:17:53;10.82;;;5.75;;
78290;SDS011;67543;45.494;9.100;2023-04-19T15:20:18;9.40;;;4.80;;
78290;SDS011;67543;45.494;9.100;2023-04-19T15:22:43;6.45;;;3.42;;
78290;SDS011;67543;45.494;9.100;2023-04-19T15:25:09;7.30;;;3.75;;
78290;SDS011;67543;45.494;9.100;2023-04-19T15:27:34;6.18;;;3.67;;
78290;SDS011;67543;45.494;9.100;2023-04-19T15:29:59;6.20;;;3.42;;
78290;SDS011;67543;45.494;9.100;2023-04-19T15:32:25;5.70;;;4.00;;
78290;SDS011;67543;45.494;9.100;2023-04-19T15:34:51;6.28;;;3.90;;
78290;SDS011;67543;45.494;9.100;2023-04-19T15:37:16;7.93;;;4.75;;
78290;SDS011;67543;45.494;9.100;2023-04-19T15:39:42;7.13;;;3.55;;
78290;SDS011;67543;45.494;9.100;2023-04-19T15:42:07;6.97;;;3.55;;
78290;SDS011;67543;45.494;9.100;2023-04-19T15:44:33;7.38;;;3.70;;
78290;SDS011;67543;45.494;9.100;2023-04-19T15:46:58;6.32;;;3.42;;
78290;SDS011;67543;45.494;9.100;2023-04-19T15:49:24;4.80;;;2.97;;
78290;SDS011;67543;45.494;9.100;2023-04-19T15:51:50;6.05;;;3.60;;
78290;SDS011;67543;45.494;9.100;2023-04-19T15:54:15;5.13;;;3.53;;
78290;SDS011;67543;45.494;9.100;2023-04-19T15:56:40;6.82;;;3.72;;
78290;SDS011;67543;45.494;9.100;2023-04-19T15:59:05;9.07;;;3.58;;
78290;SDS011;67543;45.494;9.100;2023-04-19T16:01:31;5.75;;;3.22;;
78290;SDS011;67543;45.494;9.100;2023-04-19T16:03:56;6.07;;;3.28;;
78290;SDS011;67543;45.494;9.100;2023-04-19T16:06:21;6.60;;;3.33;;
78290;SDS011;67543;45.494;9.100;2023-04-19T16:08:48;4.20;;;2.47;;
78290;SDS011;67543;45.494;9.100;2023-04-19T16:11:13;10.73;;;4.40;;
78290;SDS011;67543;45.494;9.100;2023-04-19T16:13:39;5.30;;;2.67;;
78290;SDS011;67543;45.494;9.100;2023-04-19T16:16:04;4.78;;;3.10;;
78290;SDS011;67543;45.494;9.100;2023-04-19T16:18:30;5.03;;;2.67;;
78290;SDS011;67543;45.494;9.100;2023-04-19T16:20:55;3.53;;;2.45;;
78290;SDS011;67543;45.494;9.100;2023-04-19T16:23:22;4.18;;;2.53;;
78290;SDS011;67543;45.494;9.100;2023-04-19T16:25:48;4.32;;;2.33;;
78290;SDS011;67543;45.494;9.100;2023-04-19T16:28:13;5.07;;;2.42;;
78290;SDS011;67543;45.494;9.100;2023-04-19T16:30:39;3.22;;;2.30;;
78290;SDS011;67543;45.494;9.100;2023-04-19T16:33:04;4.45;;;2.38;;
78290;SDS011;67543;45.494;9.100;2023-04-19T16:35:30;5.55;;;2.85;;
78290;SDS011;67543;45.494;9.100;2023-04-19T16:37:55;6.10;;;2.90;;
78290;SDS011;67543;45.494;9.100;2023-04-19T16:40:21;5.60;;;3.17;;
78290;SDS011;67543;45.494;9.100;2023-04-19T16:42:46;5.07;;;2.60;;
78290;SDS011;67543;45.494;9.100;2023-04-19T16:45:13;5.90;;;2.50;;
78290;SDS011;67543;45.494;9.100;2023-04-19T16:47:39;5.30;;;3.20;;
78290;SDS011;67543;45.494;9.100;2023-04-19T16:50:05;6.68;;;3.53;;
78290;SDS011;67543;45.494;9.100;2023-04-19T16:52:31;5.80;;;3.13;;
78290;SDS011;67543;45.494;9.100;2023-04-19T16:54:58;4.15;;;2.45;;
78290;SDS011;67543;45.494;9.100;2023-04-19T16:57:24;5.57;;;2.90;;
78290;SDS011;67543;45.494;9.100;2023-04-19T16:59:50;3.80;;;3.05;;
78290;SDS011;67543;45.494;9.100;2023-04-19T17:02:15;9.23;;;3.30;;
78290;SDS011;67543;45.494;9.100;2023-04-19T17:04:41;10.23;;;5.75;;
78290;SDS011;67543;45.494;9.100;2023-04-19T17:07:09;5.90;;;3.00;;
78290;SDS011;67543;45.494;9.100;2023-04-19T17:09:35;4.05;;;2.45;;
78290;SDS011;67543;45.494;9.100;2023-04-19T17:12:01;6.60;;;2.50;;
78290;SDS011;67543;45.494;9.100;2023-04-19T17:14:26;3.85;;;2.85;;
78290;SDS011;67543;45.494;9.100;2023-04-19T17:16:52;3.67;;;2.50;;
78290;SDS011;67543;45.494;9.100;2023-04-19T17:19:17;4.95;;;2.80;;
78290;SDS011;67543;45.494;9.100;2023-04-19T17:21:43;5.90;;;2.75;;
78290;SDS011;67543;45.494;9.100;2023-04-19T17:24:08;4.57;;;3.08;;
78290;SDS011;67543;45.494;9.100;2023-04-19T17:26:36;3.88;;;2.78;;
78290;SDS011;67543;45.494;9.100;2023-04-19T17:29:05;5.57;;;2.92;;
78290;SDS011;67543;45.494;9.100;2023-04-19T17:31:30;5.50;;;2.35;;
78290;SDS011;67543;45.494;9.100;2023-04-19T17:33:55;5.80;;;2.50;;
78290;SDS011;67543;45.494;9.100;2023-04-19T17:36:21;5.60;;;2.25;;
78290;SDS011;67543;45.494;9.100;2023-04-19T17:38:46;7.05;;;3.50;;
78290;SDS011;67543;45.494;9.100;2023-04-19T17:41:12;4.32;;;2.80;;
78290;SDS011;67543;45.494;9.100;2023-04-19T17:43:43;4.78;;;3.70;;
78290;SDS011;67543;45.494;9.100;2023-04-19T17:46:09;6.10;;;3.58;;
78290;SDS011;67543;45.494;9.100;2023-04-19T17:48:35;4.47;;;2.88;;
78290;SDS011;67543;45.494;9.100;2023-04-19T17:51:01;5.03;;;2.83;;
78290;SDS011;67543;45.494;9.100;2023-04-19T17:53:26;5.75;;;2.80;;
78290;SDS011;67543;45.494;9.100;2023-04-19T17:55:51;8.02;;;3.05;;
78290;SDS011;67543;45.494;9.100;2023-04-19T17:58:19;6.57;;;2.45;;
78290;SDS011;67543;45.494;9.100;2023-04-19T18:00:45;5.47;;;2.53;;
78290;SDS011;67543;45.494;9.100;2023-04-19T18:03:10;4.57;;;2.05;;
78290;SDS011;67543;45.494;9.100;2023-04-19T18:05:37;3.35;;;1.98;;
78290;SDS011;67543;45.494;9.100;2023-04-19T18:08:03;3.90;;;1.92;;
78290;SDS011;67543;45.494;9.100;2023-04-19T18:10:28;5.00;;;2.15;;
78290;SDS011;67543;45.494;9.100;2023-04-19T18:12:54;3.38;;;1.85;;
78290;SDS011;67543;45.494;9.100;2023-04-19T18:15:21;2.17;;;1.48;;
78290;SDS011;67543;45.494;9.100;2023-04-19T18:17:46;4.40;;;1.63;;
78290;SDS011;67543;45.494;9.100;2023-04-19T18:20:13;7.00;;;2.75;;
78290;SDS011;67543;45.494;9.100;2023-04-19T18:22:38;2.90;;;1.77;;
78290;SDS011;67543;45.494;9.100;2023-04-19T18:25:04;4.00;;;1.90;;
78290;SDS011;67543;45.494;9.100;2023-04-19T18:27:29;6.47;;;2.70;;
78290;SDS011;67543;45.494;9.100;2023-04-19T18:29:55;9.18;;;2.30;;
78290;SDS011;67543;45.494;9.100;2023-04-19T18:32:20;3.83;;;1.95;;
78290;SDS011;67543;45.494;9.100;2023-04-19T18:34:48;3.13;;;1.50;;
78290;SDS011;67543;45.494;9.100;2023-04-19T18:37:14;4.03;;;1.83;;
78290;SDS011;67543;45.494;9.100;2023-04-19T18:39:40;2.17;;;1.35;;
78290;SDS011;67543;45.494;9.100;2023-04-19T18:42:05;4.10;;;1.70;;
78290;SDS011;67543;45.494;9.100;2023-04-19T18:44:34;2.88;;;1.50;;
78290;SDS011;67543;45.494;9.100;2023-04-19T18:46:59;5.07;;;1.50;;
78290;SDS011;67543;45.494;9.100;2023-04-19T18:49:24;2.67;;;1.52;;
78290;SDS011;67543;45.494;9.100;2023-04-19T18:51:50;2.40;;;1.25;;
78290;SDS011;67543;45.494;9.100;2023-04-19T18:54:15;2.33;;;1.63;;
78290;SDS011;67543;45.494;9.100;2023-04-19T18:56:43;2.85;;;1.48;;
78290;SDS011;67543;45.494;9.100;2023-04-19T18:59:08;3.65;;;1.73;;
78290;SDS011;67543;45.494;9.100;2023-04-19T19:01:34;4.13;;;1.80;;
78290;SDS011;67543;45.494;9.100;2023-04-19T19:03:59;2.42;;;1.30;;
78290;SDS011;67543;45.494;9.100;2023-04-19T19:06:26;1.85;;;1.02;;
